createdAt,value
2023-04-19T00:02:06.786Z,79.40
2023-04-19T00:04:34.786Z,79.50
2023-04-19T00:07:03.456Z,79.85
2023-04-19T00:09:31.218Z,79.92
2023-04-19T00:11:59.028Z,79.79
2023-04-19T00:14:26.904Z,80.05
2023-04-19T00:16:54.768Z,79.94
2023-04-19T00:19:23.913Z,81.51
2023-04-19T00:21:51.628Z,81.43
2023-04-19T00:24:19.447Z,81.64
2023-04-19T00:26:47.179Z,81.97
2023-04-19T00:29:14.903Z,82.63
2023-04-19T00:31:42.708Z,82.07
2023-04-19T00:34:10.399Z,81.98
2023-04-19T00:36:39.504Z,82.27
2023-04-19T00:39:07.818Z,82.69
2023-04-19T00:41:35.687Z,83.49
2023-04-19T00:44:03.433Z,83.10
2023-04-19T00:46:31.390Z,83.11
2023-04-19T00:48:59.560Z,83.01
2023-04-19T00:51:27.754Z,83.95
2023-04-19T00:53:58.419Z,84.45
2023-04-19T00:56:28.222Z,84.34
2023-04-19T00:58:57.004Z,84.52
2023-04-19T01:01:24.804Z,84.69
2023-04-19T01:03:53.273Z,84.51
2023-04-19T01:06:21.559Z,84.35
2023-04-19T01:08:49.453Z,84.64
2023-04-19T01:11:18.627Z,84.35
2023-04-19T01:13:46.397Z,84.01
2023-04-19T01:16:14.328Z,84.06
2023-04-19T01:18:42.091Z,84.12
2023-04-19T01:21:10.080Z,84.21
2023-04-19T01:23:40.440Z,84.03
2023-04-19T01:26:08.239Z,84.02
2023-04-19T01:28:36.067Z,83.83
2023-04-19T01:31:04.962Z,84.30
2023-04-19T01:33:35.696Z,84.58
2023-04-19T01:36:03.702Z,84.50
2023-04-19T01:38:31.422Z,84.69
2023-04-19T01:41:00.510Z,83.78
2023-04-19T01:43:28.217Z,84.18
2023-04-19T01:45:55.971Z,83.90
2023-04-19T01:48:23.736Z,84.13
2023-04-19T01:50:51.503Z,84.14
2023-04-19T01:53:19.447Z,84.25
2023-04-19T01:55:47.202Z,84.09
2023-04-19T01:58:16.491Z,84.23
2023-04-19T02:00:44.216Z,84.58
2023-04-19T02:03:12.083Z,84.59
2023-04-19T02:05:40.242Z,84.46
2023-04-19T02:08:08.487Z,84.50
2023-04-19T02:10:36.567Z,84.74
2023-04-19T02:13:04.375Z,84.27
2023-04-19T02:15:33.460Z,84.18
2023-04-19T02:18:01.308Z,84.98
2023-04-19T02:20:29.133Z,84.50
2023-04-19T02:22:56.870Z,84.49
2023-04-19T02:25:24.619Z,84.65
2023-04-19T02:27:52.378Z,85.36
2023-04-19T02:30:20.293Z,85.63
2023-04-19T02:32:50.331Z,86.14
2023-04-19T02:35:18.128Z,86.15
2023-04-19T02:37:45.922Z,86.45
2023-04-19T02:40:13.645Z,86.91
2023-04-19T02:42:41.393Z,86.96
2023-04-19T02:45:10.334Z,86.80
2023-04-19T02:47:38.196Z,86.92
2023-04-19T02:50:08.608Z,87.02
2023-04-19T02:52:36.339Z,87.12
2023-04-19T02:55:04.570Z,86.86
2023-04-19T02:57:32.358Z,87.50
2023-04-19T03:00:00.214Z,87.02
2023-04-19T03:02:28.089Z,87.30
2023-04-19T03:04:56.267Z,86.69
2023-04-19T03:07:26.126Z,86.94
2023-04-19T03:09:54.058Z,87.02
2023-04-19T03:12:21.827Z,87.26
2023-04-19T03:14:49.775Z,87.46
2023-04-19T03:17:17.524Z,87.23
2023-04-19T03:19:45.356Z,87.50
2023-04-19T03:22:13.103Z,87.47
2023-04-19T03:24:42.213Z,87.27
2023-04-19T03:27:10.005Z,87.05
2023-04-19T03:29:37.784Z,87.16
2023-04-19T03:32:05.619Z,87.79
2023-04-19T03:34:33.786Z,87.64
2023-04-19T03:37:01.774Z,87.55
2023-04-19T03:39:29.515Z,87.89
2023-04-19T03:41:58.684Z,87.72
2023-04-19T03:44:26.429Z,87.52
2023-04-19T03:46:54.236Z,87.05
2023-04-19T03:49:22.002Z,87.25
2023-04-19T03:51:49.789Z,87.83
2023-04-19T03:54:17.791Z,87.83
2023-04-19T03:56:45.871Z,88.49
2023-04-19T03:59:14.938Z,87.72
2023-04-19T04:01:42.925Z,88.08
2023-04-19T04:04:11.906Z,87.75
2023-04-19T04:06:40.130Z,87.29
2023-04-19T04:09:07.998Z,88.02
2023-04-19T04:11:35.760Z,87.71
2023-04-19T04:14:03.548Z,87.36
2023-04-19T04:16:32.757Z,87.25
2023-04-19T04:19:00.529Z,87.08
2023-04-19T04:21:28.290Z,87.23
2023-04-19T04:23:56.092Z,87.31
2023-04-19T04:26:25.180Z,87.55
2023-04-19T04:28:53.908Z,88.04
2023-04-19T04:31:21.744Z,87.56
2023-04-19T04:33:50.997Z,88.17
2023-04-19T04:36:18.786Z,87.60
2023-04-19T04:38:46.577Z,87.79
2023-04-19T04:41:14.442Z,87.97
2023-04-19T04:43:42.550Z,88.27
2023-04-19T04:46:10.500Z,87.91
2023-04-19T04:48:38.269Z,87.66
2023-04-19T04:51:07.685Z,87.88
2023-04-19T04:53:35.430Z,87.81
2023-04-19T04:56:03.181Z,87.68
2023-04-19T04:58:30.983Z,87.25
2023-04-19T05:00:58.958Z,87.09
2023-04-19T05:03:27.127Z,87.31
2023-04-19T05:05:54.912Z,86.98
2023-04-19T05:08:24.121Z,87.42
2023-04-19T05:10:51.946Z,87.21
2023-04-19T05:13:19.634Z,86.81
2023-04-19T05:15:47.431Z,86.64
2023-04-19T05:18:15.208Z,86.24
2023-04-19T05:20:43.824Z,86.45
2023-04-19T05:23:11.650Z,86.60
2023-04-19T05:25:41.072Z,86.26
2023-04-19T05:28:09.420Z,86.42
2023-04-19T05:30:37.275Z,86.52
2023-04-19T05:33:05.713Z,86.13
2023-04-19T05:35:33.451Z,85.98
2023-04-19T05:38:02.516Z,85.79
2023-04-19T05:40:33.723Z,85.33
2023-04-19T05:43:02.861Z,85.35
2023-04-19T05:45:30.598Z,85.00
2023-04-19T05:47:58.428Z,84.62
2023-04-19T05:50:26.241Z,84.65
2023-04-19T05:52:54.219Z,84.66
2023-04-19T05:55:51.956Z,84.45
2023-04-19T05:58:19.436Z,84.07
2023-04-19T06:00:51.845Z,84.19
2023-04-19T06:03:19.730Z,84.09
2023-04-19T06:05:47.528Z,83.51
2023-04-19T06:08:16.479Z,83.27
2023-04-19T06:10:54.582Z,82.71
2023-04-19T06:13:25.990Z,82.10
2023-04-19T06:15:53.950Z,81.21
2023-04-19T06:18:21.787Z,80.71
2023-04-19T06:20:49.828Z,79.87
2023-04-19T06:23:18.641Z,79.52
2023-04-19T06:25:48.701Z,79.04
2023-04-19T06:28:16.837Z,78.39
2023-04-19T06:30:46.120Z,78.22
2023-04-19T06:33:13.835Z,76.92
2023-04-19T06:35:41.575Z,75.96
2023-04-19T06:38:09.382Z,76.26
2023-04-19T06:40:37.113Z,75.20
2023-04-19T06:43:05.943Z,74.51
2023-04-19T06:45:34.062Z,73.85
2023-04-19T06:48:03.417Z,73.55
2023-04-19T06:50:31.678Z,71.66
2023-04-19T06:52:59.628Z,71.16
2023-04-19T06:55:27.441Z,71.33
2023-04-19T06:57:55.212Z,68.79
2023-04-19T07:00:24.009Z,69.13
2023-04-19T07:02:52.364Z,68.85
2023-04-19T07:05:21.917Z,69.31
2023-04-19T07:07:49.681Z,69.03
2023-04-19T07:10:17.595Z,65.95
2023-04-19T07:12:45.401Z,65.40
2023-04-19T07:15:13.256Z,63.93
2023-04-19T07:17:41.649Z,63.24
2023-04-19T07:20:13.047Z,62.96
2023-04-19T07:22:42.238Z,61.98
2023-04-19T07:25:11.292Z,62.34
2023-04-19T07:27:42.418Z,61.36
2023-04-19T07:30:11.785Z,60.11
2023-04-19T07:32:39.668Z,59.81
2023-04-19T07:35:08.408Z,58.86
2023-04-19T07:37:36.488Z,58.77
2023-04-19T07:40:06.953Z,58.67
2023-04-19T07:42:34.814Z,58.21
2023-04-19T07:45:03.032Z,58.23
2023-04-19T07:47:31.404Z,57.50
2023-04-19T07:49:59.292Z,57.37
2023-04-19T07:52:27.144Z,56.34
2023-04-19T07:54:54.855Z,55.85
2023-04-19T07:57:23.966Z,55.04
2023-04-19T07:59:51.721Z,54.27
2023-04-19T08:02:19.700Z,54.33
2023-04-19T08:04:52.126Z,52.94
2023-04-19T08:07:20.043Z,51.52
2023-04-19T08:09:47.870Z,52.53
2023-04-19T08:12:26.522Z,51.70
2023-04-19T08:15:19.646Z,51.59
2023-04-19T08:17:52.317Z,50.53
2023-04-19T08:20:21.639Z,50.51
2023-04-19T08:22:49.463Z,49.73
2023-04-19T08:25:17.349Z,50.58
2023-04-19T08:27:45.079Z,50.39
2023-04-19T08:30:14.785Z,49.40
2023-04-19T08:32:42.561Z,48.25
2023-04-19T08:35:11.202Z,48.27
2023-04-19T08:37:38.976Z,47.98
2023-04-19T08:40:08.611Z,47.89
2023-04-19T08:42:37.245Z,47.08
2023-04-19T08:47:56.223Z,46.19
2023-04-19T08:50:33.377Z,47.74
2023-04-19T08:55:34.916Z,45.78
2023-04-19T08:58:09.630Z,45.12
2023-04-19T09:00:41.369Z,44.62
2023-04-19T09:03:11.434Z,44.48
2023-04-19T09:06:02.092Z,43.90
2023-04-19T09:08:31.394Z,44.25
2023-04-19T09:11:00.800Z,44.80
2023-04-19T09:13:30.221Z,43.77
2023-04-19T09:16:00.360Z,43.86
2023-04-19T09:18:32.090Z,43.51
2023-04-19T09:21:01.371Z,43.17
2023-04-19T09:23:29.728Z,44.20
2023-04-19T09:28:32.819Z,42.24
2023-04-19T09:31:33.225Z,41.80
2023-04-19T09:34:15.250Z,39.72
2023-04-19T09:36:43.205Z,40.14
2023-04-19T09:39:11.952Z,41.16
2023-04-19T09:41:52.243Z,39.08
2023-04-19T09:44:53.082Z,39.35
2023-04-19T09:47:24.364Z,37.22
2023-04-19T09:50:21.355Z,39.50
2023-04-19T09:52:51.214Z,36.95
2023-04-19T09:57:52.934Z,36.98
2023-04-19T10:00:22.128Z,36.53
2023-04-19T10:02:55.893Z,36.63
2023-04-19T10:05:26.456Z,38.18
2023-04-19T10:07:59.712Z,37.02
2023-04-19T10:10:41.444Z,38.08
2023-04-19T10:15:51.278Z,35.14
2023-04-19T10:18:21.111Z,36.19
2023-04-19T10:20:54.273Z,34.99
2023-04-19T10:23:23.584Z,34.74
2023-04-19T10:25:57.608Z,35.04
2023-04-19T10:28:25.826Z,35.69
2023-04-19T10:30:55.599Z,34.54
2023-04-19T10:33:28.206Z,34.49
2023-04-19T10:36:01.431Z,34.09
2023-04-19T10:38:40.500Z,34.31
2023-04-19T10:41:16.795Z,34.10
2023-04-19T10:43:47.433Z,34.65
2023-04-19T10:46:17.425Z,35.76
2023-04-19T10:48:55.526Z,32.99
2023-04-19T10:51:28.135Z,33.81
2023-04-19T10:54:00.536Z,33.57
2023-04-19T10:57:02.337Z,33.87
2023-04-19T10:59:33.842Z,32.74
2023-04-19T11:02:02.992Z,33.08
2023-04-19T11:05:14.448Z,33.30
2023-04-19T11:07:44.042Z,33.11
2023-04-19T11:10:12.752Z,32.60
2023-04-19T11:12:44.686Z,33.83
2023-04-19T11:15:12.519Z,33.93
2023-04-19T11:17:41.697Z,34.02
2023-04-19T11:20:11.687Z,33.67
2023-04-19T11:22:40.890Z,34.33
2023-04-19T11:25:13.057Z,35.74
2023-04-19T11:27:41.485Z,32.04
2023-04-19T11:30:11.282Z,33.04
2023-04-19T11:32:40.156Z,33.06
2023-04-19T11:35:09.994Z,33.52
2023-04-19T11:37:39.231Z,34.02
2023-04-19T11:40:08.807Z,33.78
2023-04-19T11:42:38.000Z,32.85
2023-04-19T11:45:13.105Z,33.45
2023-04-19T11:47:50.861Z,32.53
2023-04-19T11:50:40.349Z,31.43
2023-04-19T11:53:13.088Z,31.79
2023-04-19T11:55:43.826Z,29.95
2023-04-19T11:58:24.497Z,30.26
2023-04-19T12:00:52.489Z,29.75
2023-04-19T12:03:25.797Z,30.00
2023-04-19T12:05:58.379Z,28.89
2023-04-19T12:08:33.766Z,30.10
2023-04-19T12:11:03.506Z,29.19
2023-04-19T12:13:34.147Z,30.35
2023-04-19T12:16:03.437Z,31.59
2023-04-19T12:18:45.253Z,29.71
2023-04-19T12:21:24.771Z,29.45
2023-04-19T12:23:55.549Z,31.55
2023-04-19T12:26:23.302Z,30.83
2023-04-19T12:28:52.722Z,30.90
2023-04-19T12:31:20.851Z,30.27
2023-04-19T12:33:49.339Z,30.39
2023-04-19T12:36:17.134Z,28.34
2023-04-19T12:38:45.269Z,28.42
2023-04-19T12:41:13.037Z,28.12
2023-04-19T12:43:41.030Z,26.95
2023-04-19T12:46:10.282Z,27.90
2023-04-19T12:48:38.051Z,27.96
2023-04-19T12:51:06.000Z,27.46
2023-04-19T12:53:34.377Z,26.12
2023-04-19T12:56:02.147Z,26.71
2023-04-19T12:58:29.953Z,26.28
2023-04-19T13:00:57.799Z,26.63
2023-04-19T13:03:27.403Z,26.96
2023-04-19T13:05:55.408Z,25.41
2023-04-19T13:08:37.144Z,26.18
2023-04-19T13:11:10.991Z,26.64
2023-04-19T13:13:41.852Z,26.36
2023-04-19T13:16:09.948Z,25.02
2023-04-19T13:18:39.516Z,25.50
2023-04-19T13:21:08.473Z,25.69
2023-04-19T13:23:36.644Z,26.58
2023-04-19T13:26:07.078Z,25.48
2023-04-19T13:28:36.681Z,27.06
2023-04-19T13:31:05.572Z,26.51
2023-04-19T13:33:33.461Z,25.53
2023-04-19T13:36:02.780Z,25.25
2023-04-19T13:38:30.807Z,24.64
2023-04-19T13:40:58.881Z,24.55
2023-04-19T13:43:26.645Z,24.75
2023-04-19T13:45:54.432Z,25.57
2023-04-19T13:48:22.637Z,25.83
2023-04-19T13:50:52.129Z,25.81
2023-04-19T13:53:21.416Z,25.92
2023-04-19T13:55:49.211Z,25.13
2023-04-19T13:58:16.965Z,25.74
2023-04-19T14:00:44.977Z,25.97
2023-04-19T14:03:13.109Z,27.18
2023-04-19T14:05:41.202Z,25.64
2023-04-19T14:08:08.913Z,26.22
2023-04-19T14:10:38.167Z,25.95
2023-04-19T14:13:06.313Z,26.45
2023-04-19T14:15:34.143Z,25.43
2023-04-19T14:18:03.841Z,25.99
2023-04-19T14:20:31.794Z,25.96
2023-04-19T14:23:00.362Z,25.48
2023-04-19T14:25:28.179Z,27.15
2023-04-19T14:27:57.410Z,29.37
2023-04-19T14:30:26.249Z,30.02
2023-04-19T14:32:54.239Z,30.49
2023-04-19T14:35:24.587Z,31.27
2023-04-19T14:37:52.386Z,31.19
2023-04-19T14:40:21.000Z,30.13
2023-04-19T14:42:48.862Z,30.01
2023-04-19T14:45:18.168Z,31.55
2023-04-19T14:47:45.946Z,31.06
2023-04-19T14:50:13.760Z,31.59
2023-04-19T14:52:42.828Z,30.99
2023-04-19T14:55:12.191Z,31.51
2023-04-19T14:57:45.423Z,30.11
2023-04-19T15:00:14.422Z,30.58
2023-04-19T15:02:43.758Z,29.96
2023-04-19T15:05:12.003Z,29.88
2023-04-19T15:07:39.966Z,30.14
2023-04-19T15:10:08.923Z,31.06
2023-04-19T15:12:36.744Z,31.29
2023-04-19T15:15:05.162Z,31.32
2023-04-19T15:17:33.058Z,29.98
2023-04-19T15:20:02.242Z,31.51
2023-04-19T15:22:30.173Z,31.27
2023-04-19T15:24:57.986Z,30.47
2023-04-19T15:27:25.789Z,30.47
2023-04-19T15:29:53.917Z,31.02
2023-04-19T15:32:21.811Z,31.75
2023-04-19T15:34:49.603Z,30.89
2023-04-19T15:37:18.768Z,31.58
2023-04-19T15:39:49.677Z,31.03
2023-04-19T15:42:17.471Z,30.38
2023-04-19T15:44:51.051Z,30.77
2023-04-19T15:47:21.028Z,31.42
2023-04-19T15:49:49.038Z,32.65
2023-04-19T15:52:18.904Z,32.03
2023-04-19T15:54:46.688Z,32.73
2023-04-19T15:57:14.416Z,33.50
2023-04-19T15:59:42.181Z,32.31
2023-04-19T16:02:10.155Z,33.17
2023-04-19T16:04:38.501Z,32.94
2023-04-19T16:07:06.891Z,34.33
2023-04-19T16:09:36.562Z,34.00
2023-04-19T16:12:04.720Z,34.46
2023-04-19T16:14:32.512Z,33.68
2023-04-19T16:17:02.957Z,35.68
2023-04-19T16:19:30.745Z,35.53
2023-04-19T16:22:01.983Z,34.80
2023-04-19T16:24:29.995Z,35.62
2023-04-19T16:26:59.121Z,36.68
2023-04-19T16:29:26.927Z,36.65
2023-04-19T16:31:54.829Z,36.58
2023-04-19T16:34:24.760Z,37.12
2023-04-19T16:36:53.622Z,36.95
2023-04-19T16:39:21.427Z,38.00
2023-04-19T16:41:49.391Z,38.32
2023-04-19T16:44:18.521Z,37.91
2023-04-19T16:46:46.262Z,37.85
2023-04-19T16:49:14.224Z,39.15
2023-04-19T16:51:42.272Z,38.83
2023-04-19T16:54:10.069Z,39.58
2023-04-19T16:56:37.822Z,40.22
2023-04-19T16:59:05.622Z,41.05
2023-04-19T17:01:34.887Z,40.31
2023-04-19T17:04:05.131Z,40.18
2023-04-19T17:06:33.567Z,40.10
2023-04-19T17:09:04.932Z,40.12
2023-04-19T17:11:33.206Z,40.03
2023-04-19T17:14:03.119Z,39.81
2023-04-19T17:16:30.879Z,40.28
2023-04-19T17:18:59.982Z,41.41
2023-04-19T17:21:27.816Z,41.25
2023-04-19T17:23:55.620Z,41.51
2023-04-19T17:26:23.449Z,42.22
2023-04-19T17:28:51.236Z,42.06
2023-04-19T17:31:28.250Z,42.06
2023-04-19T17:33:56.528Z,41.43
2023-04-19T17:36:25.662Z,41.64
2023-04-19T17:38:53.731Z,41.14
2023-04-19T17:41:21.653Z,41.78
2023-04-19T17:43:49.422Z,42.50
2023-04-19T17:46:18.998Z,43.81
2023-04-19T17:48:47.030Z,42.98
2023-04-19T17:51:14.909Z,42.71
2023-04-19T17:53:44.065Z,42.37
2023-04-19T17:56:11.808Z,42.94
2023-04-19T17:58:39.680Z,42.83
2023-04-19T18:01:10.307Z,43.21
2023-04-19T18:03:38.745Z,42.87
2023-04-19T18:06:07.105Z,43.89
2023-04-19T18:08:34.935Z,43.54
2023-04-19T18:11:04.235Z,44.43
2023-04-19T18:13:34.574Z,44.29
2023-04-19T18:16:03.453Z,44.72
2023-04-19T18:18:31.408Z,44.69
2023-04-19T18:20:59.905Z,44.99
2023-04-19T18:23:27.856Z,45.20
2023-04-19T18:25:56.594Z,44.94
2023-04-19T18:28:25.778Z,45.42
2023-04-19T18:30:53.616Z,44.42
2023-04-19T18:33:31.765Z,44.66
2023-04-19T18:35:59.566Z,44.71
2023-04-19T18:38:27.467Z,44.67
2023-04-19T18:41:02.697Z,44.79
2023-04-19T18:43:31.886Z,44.65
2023-04-19T18:46:00.315Z,44.65
2023-04-19T18:48:29.462Z,45.10
2023-04-19T18:50:57.929Z,44.96
2023-04-19T18:53:29.532Z,45.21
2023-04-19T18:55:58.815Z,44.99
2023-04-19T18:58:27.527Z,45.15
2023-04-19T19:00:57.188Z,46.14
2023-04-19T19:05:58.123Z,47.35
2023-04-19T19:08:26.266Z,47.93
2023-04-19T19:13:24.893Z,49.42
2023-04-19T19:15:52.997Z,50.76
2023-04-19T19:18:23.584Z,51.22
2023-04-19T19:20:51.714Z,51.66
2023-04-19T19:23:20.495Z,52.40
2023-04-19T19:25:53.989Z,52.64
2023-04-19T19:28:22.484Z,52.94
2023-04-19T19:30:51.088Z,53.31
2023-04-19T19:33:21.909Z,53.39
2023-04-19T19:35:51.079Z,53.90
2023-04-19T19:38:18.919Z,53.52
2023-04-19T19:41:24.617Z,53.64
2023-04-19T19:43:37.623Z,54.10
2023-04-19T19:46:05.875Z,54.06
2023-04-19T19:48:40.358Z,54.21
2023-04-19T19:53:42.324Z,54.52
2023-04-19T19:56:18.324Z,54.51
2023-04-19T19:58:51.529Z,54.67
2023-04-19T20:01:21.949Z,54.83
2023-04-19T20:03:50.353Z,55.13
2023-04-19T20:07:07.785Z,54.64
2023-04-19T20:09:07.751Z,54.83
2023-04-19T20:11:35.649Z,55.04
2023-04-19T20:14:03.494Z,55.12
2023-04-19T20:16:31.290Z,55.33
2023-04-19T20:18:59.501Z,55.56
2023-04-19T20:21:28.615Z,55.59
2023-04-19T20:23:56.569Z,56.00
2023-04-19T20:26:24.344Z,56.17
2023-04-19T20:28:52.678Z,56.38
2023-04-19T20:31:22.117Z,56.54
2023-04-19T20:33:54.859Z,56.47
2023-04-19T20:36:23.658Z,56.94
2023-04-19T20:38:53.285Z,56.60
2023-04-19T20:41:22.234Z,56.35
2023-04-19T20:43:49.968Z,56.17
2023-04-19T20:46:17.882Z,55.89
2023-04-19T20:48:45.703Z,56.03
2023-04-19T20:51:15.231Z,56.04
2023-04-19T20:53:43.085Z,55.72
2023-04-19T20:56:12.269Z,55.64
2023-04-19T20:58:40.639Z,55.43
2023-04-19T21:01:08.564Z,55.17
2023-04-19T21:03:36.691Z,55.43
2023-04-19T21:06:04.664Z,55.48
2023-04-19T21:08:32.617Z,55.38
2023-04-19T21:11:02.060Z,54.69
2023-04-19T21:13:32.251Z,54.05
2023-04-19T21:16:00.271Z,53.26
2023-04-19T21:18:30.114Z,51.20
2023-04-19T21:20:58.077Z,49.91
2023-04-19T21:23:25.814Z,48.48
2023-04-19T21:25:53.587Z,47.19
2023-04-19T21:28:22.573Z,47.35
2023-04-19T21:30:53.417Z,45.13
2023-04-19T21:33:21.212Z,45.45
2023-04-19T21:35:49.004Z,45.35
2023-04-19T21:38:16.877Z,45.05
2023-04-19T21:40:44.688Z,45.13
2023-04-19T21:43:12.449Z,45.23
2023-04-19T21:45:40.185Z,45.08
2023-04-19T21:48:09.331Z,45.03
2023-04-19T21:50:37.080Z,45.93
2023-04-19T21:53:05.176Z,45.76
2023-04-19T21:55:34.444Z,46.15
2023-04-19T21:58:02.705Z,45.17
2023-04-19T22:00:30.656Z,44.38
2023-04-19T22:03:02.743Z,44.02
2023-04-19T22:05:32.075Z,42.53
2023-04-19T22:07:59.853Z,41.78
2023-04-19T22:10:28.018Z,41.35
2023-04-19T22:12:58.920Z,41.72
2023-04-19T22:15:26.950Z,41.21
2023-04-19T22:17:55.025Z,41.20
2023-04-19T22:20:23.755Z,41.03
2023-04-19T22:22:53.036Z,41.44
2023-04-19T22:25:21.018Z,40.57
2023-04-19T22:27:49.798Z,40.28
2023-04-19T22:30:17.565Z,39.84
2023-04-19T22:32:47.446Z,39.83
2023-04-19T22:35:20.701Z,38.93
2023-04-19T22:37:57.419Z,39.43
2023-04-19T22:40:25.311Z,38.85
2023-04-19T22:43:02.401Z,39.03
2023-04-19T22:45:30.226Z,39.06
2023-04-19T22:47:58.012Z,39.61
2023-04-19T22:50:25.799Z,40.00
2023-04-19T22:52:56.996Z,39.79
2023-04-19T22:55:25.104Z,38.84
2023-04-19T22:57:52.866Z,39.03
2023-04-19T23:00:21.376Z,39.60
2023-04-19T23:02:49.337Z,39.37
2023-04-19T23:05:18.156Z,39.75
2023-04-19T23:07:46.171Z,40.16
2023-04-19T23:10:15.353Z,39.41
2023-04-19T23:12:43.128Z,40.10
2023-04-19T23:15:13.440Z,40.00
2023-04-19T23:17:41.314Z,40.34
2023-04-19T23:20:11.202Z,40.04
2023-04-19T23:22:39.132Z,40.63
2023-04-19T23:25:07.942Z,40.74
2023-04-19T23:27:37.482Z,41.60
2023-04-19T23:30:07.404Z,41.51
2023-04-19T23:32:35.253Z,41.71
2023-04-19T23:35:03.545Z,42.02
2023-04-19T23:37:32.700Z,43.26
2023-04-19T23:40:00.473Z,43.22
2023-04-19T23:42:28.229Z,43.96
2023-04-19T23:44:57.424Z,43.95
2023-04-19T23:47:25.260Z,43.42
2023-04-19T23:49:53.031Z,43.65
2023-04-19T23:52:22.697Z,43.24
2023-04-19T23:54:50.810Z,44.35
2023-04-19T23:57:19.652Z,44.72
2023-04-19T23:59:47.390Z,44.04
